Time;durP1;ratioP1;P1;durP2;ratioP2;P2;SDS_P1;SDS_P2;PMS_P1;PMS_P2;Temp;Humidity;BMP_temperature;BMP_pressure;BME280_temperature;BME280_humidity;BME280_pressure;Samples;Min_cycle;Max_cycle;Signal;HPM_P1;HPM_P2
2021/08/21 00:01:04;;;;;;;;;;;23.90;47.10;;;;;;1579075;74;788;-67
2021/08/21 00:03:09;;;;;;;;;;;23.90;47.20;;;;;;1578886;74;634;-67
2021/08/21 00:05:11;;;;;;;;;;;23.90;47.10;;;;;;1574683;74;1927;-67
2021/08/21 00:07:13;;;;;;;;;;;23.80;47.10;;;;;;1558399;74;719;-67
2021/08/21 00:09:15;;;;;;;;;;;23.90;47.10;;;;;;1590656;74;1061;-67
2021/08/21 00:11:17;;;;;;;;;;;23.80;47.10;;;;;;1593363;74;745;-63
2021/08/21 00:13:19;;;;;;;;;;;23.80;47.00;;;;;;1565926;75;703;-66
2021/08/21 00:15:21;;;;;;;;;;;23.90;47.10;;;;;;1590866;74;749;-67
2021/08/21 00:17:23;;;;;;;;;;;23.90;47.10;;;;;;1577132;74;667;-67
2021/08/21 00:19:25;;;;;;;;;;;23.80;47.00;;;;;;1582835;74;1108;-67
2021/08/21 00:21:27;;;;;;;;;;;23.90;47.10;;;;;;1581740;74;747;-69
2021/08/21 00:23:28;;;;;;;;;;;23.80;47.00;;;;;;1585408;74;805;-66
2021/08/21 00:25:30;;;;;;;;;;;23.90;47.10;;;;;;1585990;74;1946;-65
2021/08/21 00:27:32;;;;;;;;;;;23.80;47.00;;;;;;1577471;74;712;-66
2021/08/21 00:29:34;;;;;;;;;;;23.90;47.10;;;;;;1580325;74;1108;-67
2021/08/21 00:31:36;;;;;;;;;;;23.80;47.10;;;;;;1577386;74;806;-65
2021/08/21 00:33:38;;;;;;;;;;;23.90;47.10;;;;;;1590392;74;702;-68
2021/08/21 00:35:40;;;;;;;;;;;23.80;47.00;;;;;;1581348;74;691;-67
2021/08/21 00:37:42;;;;;;;;;;;23.80;47.00;;;;;;1584757;74;815;-68
2021/08/21 00:39:43;;;;;;;;;;;23.80;47.00;;;;;;1576010;75;704;-67
2021/08/21 00:41:45;;;;;;;;;;;23.80;47.00;;;;;;1569834;74;692;-64
2021/08/21 00:43:47;;;;;;;;;;;23.80;47.00;;;;;;1566720;74;894;-66
2021/08/21 00:45:49;;;;;;;;;;;23.80;46.90;;;;;;1560322;74;1939;-66
2021/08/21 00:47:51;;;;;;;;;;;23.90;47.00;;;;;;1576955;74;1177;-65
2021/08/21 00:49:54;;;;;;;;;;;23.80;47.00;;;;;;1580854;74;662;-67
2021/08/21 00:51:56;;;;;;;;;;;23.80;46.90;;;;;;1564512;74;564;-66
2021/08/21 00:53:58;;;;;;;;;;;23.80;46.90;;;;;;1579894;74;800;-66
2021/08/21 00:56:00;;;;;;;;;;;23.80;46.90;;;;;;1583870;74;671;-66
2021/08/21 00:58:02;;;;;;;;;;;23.80;46.90;;;;;;1583785;74;1164;-66
2021/08/21 01:00:04;;;;;;;;;;;23.70;46.90;;;;;;1571147;74;723;-67
2021/08/21 01:02:06;;;;;;;;;;;23.80;46.90;;;;;;1586232;74;704;-67
2021/08/21 01:04:08;;;;;;;;;;;23.80;46.90;;;;;;1570219;74;611;-67
2021/08/21 01:06:10;;;;;;;;;;;23.80;46.90;;;;;;1583620;74;1946;-67
2021/08/21 01:08:12;;;;;;;;;;;23.90;46.90;;;;;;1567426;74;1221;-67
2021/08/21 01:10:15;;;;;;;;;;;23.80;46.80;;;;;;1579583;74;751;-66
2021/08/21 01:12:18;;;;;;;;;;;23.80;46.90;;;;;;1573763;74;778;-66
2021/08/21 01:14:20;;;;;;;;;;;23.80;46.80;;;;;;1576527;74;731;-64
2021/08/21 01:16:22;;;;;;;;;;;23.80;46.90;;;;;;1566151;74;790;-66
2021/08/21 01:18:23;;;;;;;;;;;23.70;46.80;;;;;;1588707;74;1128;-64
2021/08/21 01:20:29;;;;;;;;;;;23.80;46.80;;;;;;1578096;74;833;-67
2021/08/21 01:22:31;;;;;;;;;;;23.80;46.80;;;;;;1566131;74;701;-67
2021/08/21 01:24:34;;;;;;;;;;;23.80;46.80;;;;;;1589473;74;786;-67
2021/08/21 01:26:36;;;;;;;;;;;23.80;46.80;;;;;;1588066;74;1941;-67
2021/08/21 01:28:38;;;;;;;;;;;23.80;46.80;;;;;;1585424;74;1127;-67
2021/08/21 01:30:42;;;;;;;;;;;23.80;46.80;;;;;;1566074;74;680;-67
2021/08/21 01:32:43;;;;;;;;;;;23.80;46.80;;;;;;1582443;74;1018;-67
2021/08/21 01:34:46;;;;;;;;;;;23.80;46.80;;;;;;1585939;74;799;-68
2021/08/21 01:36:49;;;;;;;;;;;23.80;46.80;;;;;;1579850;74;678;-66
2021/08/21 01:38:55;;;;;;;;;;;23.80;46.80;;;;;;1576098;74;1499;-66
2021/08/21 01:40:57;;;;;;;;;;;23.70;46.70;;;;;;1569527;74;784;-67
2021/08/21 01:42:58;;;;;;;;;;;23.80;46.70;;;;;;1576866;74;691;-67
2021/08/21 01:45:00;;;;;;;;;;;23.80;46.70;;;;;;1576914;74;713;-67
2021/08/21 01:47:02;;;;;;;;;;;23.80;46.70;;;;;;1579040;74;1927;-68
2021/08/21 01:49:09;;;;;;;;;;;23.70;46.70;;;;;;1573023;73;3161;-63
2021/08/21 01:51:09;;;;;;;;;;;23.80;46.70;;;;;;1572464;74;1505;-60
2021/08/21 01:53:11;;;;;;;;;;;23.80;46.60;;;;;;1566507;74;661;-60
2021/08/21 01:55:13;;;;;;;;;;;23.70;46.70;;;;;;1578562;74;747;-63
2021/08/21 01:57:15;;;;;;;;;;;23.80;46.60;;;;;;1572152;74;681;-63
2021/08/21 01:59:20;;;;;;;;;;;23.70;46.60;;;;;;1547047;74;1201;-63
2021/08/21 02:01:22;;;;;;;;;;;23.70;46.60;;;;;;1565206;74;671;-63
2021/08/21 02:03:25;;;;;;;;;;;23.80;46.60;;;;;;1571197;74;763;-62
2021/08/21 02:05:27;;;;;;;;;;;23.80;46.60;;;;;;1569537;74;751;-63
2021/08/21 02:07:29;;;;;;;;;;;23.70;46.50;;;;;;1561115;75;1942;-63
2021/08/21 02:09:33;;;;;;;;;;;23.70;46.50;;;;;;1565311;75;1267;-64
2021/08/21 02:11:35;;;;;;;;;;;23.70;46.50;;;;;;1567346;74;1677;-63
2021/08/21 02:13:37;;;;;;;;;;;23.70;46.50;;;;;;1573440;75;727;-61
2021/08/21 02:15:39;;;;;;;;;;;23.80;46.50;;;;;;1571714;75;718;-63
2021/08/21 02:17:40;;;;;;;;;;;23.70;46.50;;;;;;1570263;74;698;-63
2021/08/21 02:19:42;;;;;;;;;;;23.70;46.50;;;;;;1565485;75;1183;-63
2021/08/21 02:21:44;;;;;;;;;;;23.70;46.50;;;;;;1561805;74;697;-63
2021/08/21 02:23:47;;;;;;;;;;;23.70;46.50;;;;;;1550037;76;828;-63
2021/08/21 02:25:55;;;;;;;;;;;23.70;46.50;;;;;;1562213;74;1959;-63
2021/08/21 02:27:57;;;;;;;;;;;23.70;46.50;;;;;;1569571;75;1625;-61
2021/08/21 02:29:59;;;;;;;;;;;23.70;46.50;;;;;;1560435;74;1113;-63
2021/08/21 02:32:01;;;;;;;;;;;23.70;46.40;;;;;;1567586;75;802;-63
2021/08/21 02:34:03;;;;;;;;;;;23.80;46.40;;;;;;1561851;74;798;-63
2021/08/21 02:36:04;;;;;;;;;;;23.70;46.40;;;;;;1552887;74;717;-63
2021/08/21 02:38:06;;;;;;;;;;;23.70;46.40;;;;;;1556535;74;1162;-63
2021/08/21 02:40:09;;;;;;;;;;;23.80;46.40;;;;;;1553869;74;724;-63
2021/08/21 02:42:11;;;;;;;;;;;23.70;46.40;;;;;;1556089;74;752;-63
2021/08/21 02:44:12;;;;;;;;;;;23.70;46.30;;;;;;1564297;75;869;-63
2021/08/21 02:46:14;;;;;;;;;;;23.70;46.40;;;;;;1557033;76;1951;-63
2021/08/21 02:48:16;;;;;;;;;;;23.70;46.30;;;;;;1575746;74;1159;-62
2021/08/21 02:50:18;;;;;;;;;;;23.70;46.30;;;;;;1558066;75;810;-63
2021/08/21 02:52:20;;;;;;;;;;;23.80;46.30;;;;;;1554480;75;809;-62
2021/08/21 02:54:22;;;;;;;;;;;23.70;46.30;;;;;;1568057;74;766;-63
2021/08/21 02:56:24;;;;;;;;;;;23.60;46.20;;;;;;1552268;75;777;-63
2021/08/21 02:58:25;;;;;;;;;;;23.70;46.30;;;;;;1566429;75;1174;-63
2021/08/21 03:00:27;;;;;;;;;;;23.70;46.30;;;;;;1567865;75;768;-63
2021/08/21 03:02:29;;;;;;;;;;;23.70;46.30;;;;;;1570453;74;756;-63
2021/08/21 03:04:31;;;;;;;;;;;23.80;46.30;;;;;;1569470;75;801;-63
2021/08/21 03:06:33;;;;;;;;;;;23.70;46.20;;;;;;1568847;76;1945;-63
2021/08/21 03:08:35;;;;;;;;;;;23.70;46.20;;;;;;1566696;74;1204;-60
2021/08/21 03:10:37;;;;;;;;;;;23.70;46.30;;;;;;1566329;75;792;-63
2021/08/21 03:12:39;;;;;;;;;;;23.70;46.20;;;;;;1571215;74;704;-63
2021/08/21 03:14:40;;;;;;;;;;;23.60;46.10;;;;;;1559089;74;747;-63
2021/08/21 03:16:42;;;;;;;;;;;23.70;46.20;;;;;;1571406;74;741;-63
2021/08/21 03:18:44;;;;;;;;;;;23.60;46.00;;;;;;1563897;75;1180;-63
2021/08/21 03:20:46;;;;;;;;;;;23.70;46.20;;;;;;1563679;75;802;-63
2021/08/21 03:22:48;;;;;;;;;;;23.70;46.20;;;;;;1564090;75;735;-62
2021/08/21 03:24:50;;;;;;;;;;;23.70;46.10;;;;;;1567491;75;733;-63
2021/08/21 03:26:52;;;;;;;;;;;23.70;46.20;;;;;;1566399;75;1938;-62
2021/08/21 03:28:53;;;;;;;;;;;23.70;46.10;;;;;;1567667;75;1176;-63
2021/08/21 03:30:55;;;;;;;;;;;23.60;46.00;;;;;;1569746;74;989;-63
2021/08/21 03:32:57;;;;;;;;;;;23.70;46.10;;;;;;1563667;74;777;-63
2021/08/21 03:34:59;;;;;;;;;;;23.60;46.00;;;;;;1549545;75;871;-64
2021/08/21 03:37:01;;;;;;;;;;;23.60;46.00;;;;;;1573745;75;796;-63
2021/08/21 03:39:03;;;;;;;;;;;23.70;46.10;;;;;;1566573;74;1149;-60
2021/08/21 03:41:05;;;;;;;;;;;23.70;46.10;;;;;;1561761;75;698;-63
2021/08/21 03:43:07;;;;;;;;;;;23.60;46.00;;;;;;1566031;75;731;-62
2021/08/21 03:45:09;;;;;;;;;;;23.70;46.10;;;;;;1555142;74;816;-63
2021/08/21 03:47:11;;;;;;;;;;;23.60;46.00;;;;;;1564809;74;1924;-63
2021/08/21 03:49:13;;;;;;;;;;;23.60;46.00;;;;;;1560396;75;1151;-62
2021/08/21 03:51:15;;;;;;;;;;;23.60;46.00;;;;;;1563720;74;794;-63
2021/08/21 03:53:19;;;;;;;;;;;23.60;46.00;;;;;;1554246;74;777;-62
2021/08/21 03:55:20;;;;;;;;;;;23.60;46.00;;;;;;1562275;74;1333;-64
2021/08/21 03:57:22;;;;;;;;;;;23.60;46.00;;;;;;1574280;74;756;-63
2021/08/21 03:59:24;;;;;;;;;;;23.60;46.00;;;;;;1560305;75;1180;-63
2021/08/21 04:01:26;;;;;;;;;;;23.70;46.20;;;;;;1562881;74;778;-63
2021/08/21 04:03:28;;;;;;;;;;;23.70;46.20;;;;;;1570557;74;785;-63
2021/08/21 04:05:29;;;;;;;;;;;23.60;46.20;;;;;;1555485;75;756;-63
2021/08/21 04:07:31;;;;;;;;;;;23.60;46.20;;;;;;1558869;74;1942;-63
2021/08/21 04:09:33;;;;;;;;;;;23.60;46.20;;;;;;1559121;75;1156;-64
2021/08/21 04:11:35;;;;;;;;;;;23.70;46.30;;;;;;1567805;74;822;-61
2021/08/21 04:13:37;;;;;;;;;;;23.60;46.30;;;;;;1568424;75;811;-63
2021/08/21 04:15:39;;;;;;;;;;;23.70;46.30;;;;;;1563107;74;826;-63
2021/08/21 04:17:41;;;;;;;;;;;23.60;46.30;;;;;;1562012;75;734;-63
2021/08/21 04:19:42;;;;;;;;;;;23.60;46.30;;;;;;1564105;74;1142;-63
2021/08/21 04:21:44;;;;;;;;;;;23.60;46.30;;;;;;1559324;74;711;-63
2021/08/21 04:23:46;;;;;;;;;;;23.60;46.30;;;;;;1558240;76;904;-63
2021/08/21 04:25:48;;;;;;;;;;;23.60;46.30;;;;;;1566576;74;741;-63
2021/08/21 04:27:52;;;;;;;;;;;23.70;46.40;;;;;;1566351;75;1942;-63
2021/08/21 04:29:53;;;;;;;;;;;23.60;46.30;;;;;;1558487;74;1673;-63
2021/08/21 04:31:55;;;;;;;;;;;23.60;46.40;;;;;;1572269;75;777;-63
2021/08/21 04:33:57;;;;;;;;;;;23.70;46.50;;;;;;1569335;74;769;-63
2021/08/21 04:35:59;;;;;;;;;;;23.70;46.50;;;;;;1567768;75;708;-62
2021/08/21 04:38:02;;;;;;;;;;;23.70;46.50;;;;;;1560146;76;785;-63
2021/08/21 04:40:05;;;;;;;;;;;23.60;46.40;;;;;;1553138;74;826;-63
2021/08/21 04:42:07;;;;;;;;;;;23.60;46.40;;;;;;1567667;75;699;-63
2021/08/21 04:44:08;;;;;;;;;;;23.60;46.50;;;;;;1567435;75;689;-63
2021/08/21 04:46:10;;;;;;;;;;;23.60;46.50;;;;;;1553398;76;816;-63
2021/08/21 04:48:12;;;;;;;;;;;23.60;46.40;;;;;;1565460;74;1954;-62
2021/08/21 04:50:14;;;;;;;;;;;23.60;46.40;;;;;;1568945;75;753;-62
2021/08/21 04:52:16;;;;;;;;;;;23.60;46.40;;;;;;1556746;75;722;-62
2021/08/21 04:54:18;;;;;;;;;;;23.60;46.40;;;;;;1564163;74;798;-63
2021/08/21 04:56:20;;;;;;;;;;;23.60;46.50;;;;;;1565684;74;807;-63
2021/08/21 04:58:21;;;;;;;;;;;23.60;46.50;;;;;;1571603;75;1182;-63
2021/08/21 05:00:25;;;;;;;;;;;23.60;46.50;;;;;;1570944;74;816;-62
2021/08/21 05:02:27;;;;;;;;;;;23.60;46.50;;;;;;1571113;74;799;-63
2021/08/21 05:04:28;;;;;;;;;;;23.70;46.60;;;;;;1566647;75;821;-63
2021/08/21 05:06:30;;;;;;;;;;;23.60;46.50;;;;;;1555980;74;770;-61
2021/08/21 05:08:32;;;;;;;;;;;23.70;46.70;;;;;;1570627;74;1942;-63
2021/08/21 05:10:34;;;;;;;;;;;23.60;46.60;;;;;;1570049;74;815;-63
2021/08/21 05:12:36;;;;;;;;;;;23.60;46.60;;;;;;1560932;75;742;-63
2021/08/21 05:14:38;;;;;;;;;;;23.60;46.60;;;;;;1566154;75;770;-61
2021/08/21 05:16:42;;;;;;;;;;;23.60;46.60;;;;;;1558909;75;818;-63
2021/08/21 05:18:48;;;;;;;;;;;23.60;46.70;;;;;;1557655;74;1667;-63
2021/08/21 05:20:54;;;;;;;;;;;23.60;46.70;;;;;;1565596;75;1431;-63
2021/08/21 05:23:14;;;;;;;;;;;23.60;46.80;;;;;;1558209;76;726;-63
2021/08/21 05:25:02;;;;;;;;;;;23.60;46.80;;;;;;1561178;74;1545;-63
2021/08/21 05:27:04;;;;;;;;;;;23.60;46.80;;;;;;1561920;74;1928;-64
2021/08/21 05:29:06;;;;;;;;;;;23.60;46.90;;;;;;1570275;75;1167;-63
2021/08/21 05:31:08;;;;;;;;;;;23.60;47.00;;;;;;1559033;74;741;-61
2021/08/21 05:33:11;;;;;;;;;;;23.60;47.00;;;;;;1577505;74;791;-63
2021/08/21 05:35:12;;;;;;;;;;;23.60;47.10;;;;;;1558070;75;860;-63
2021/08/21 05:37:14;;;;;;;;;;;23.60;47.10;;;;;;1562954;75;817;-63
2021/08/21 05:39:16;;;;;;;;;;;23.70;47.20;;;;;;1564962;74;1142;-62
2021/08/21 05:41:18;;;;;;;;;;;23.60;47.10;;;;;;1570587;75;782;-63
2021/08/21 05:43:20;;;;;;;;;;;23.70;47.30;;;;;;1568561;74;715;-63
2021/08/21 05:45:22;;;;;;;;;;;23.60;47.20;;;;;;1566806;75;706;-63
2021/08/21 05:47:24;;;;;;;;;;;23.60;47.30;;;;;;1571367;74;1942;-63
2021/08/21 05:49:25;;;;;;;;;;;23.60;47.30;;;;;;1566155;75;1149;-64
2021/08/21 05:51:29;;;;;;;;;;;23.60;47.30;;;;;;1564201;74;771;-63
2021/08/21 05:53:32;;;;;;;;;;;23.70;47.40;;;;;;1560915;74;796;-63
2021/08/21 05:55:34;;;;;;;;;;;23.70;47.40;;;;;;1564521;75;673;-63
2021/08/21 05:57:36;;;;;;;;;;;23.60;47.30;;;;;;1565150;75;789;-62
2021/08/21 05:59:38;;;;;;;;;;;23.70;47.40;;;;;;1556478;75;1181;-62
2021/08/21 06:01:39;;;;;;;;;;;23.60;47.30;;;;;;1564114;74;810;-63
2021/08/21 06:03:41;;;;;;;;;;;23.70;47.40;;;;;;1560280;75;778;-63
2021/08/21 06:05:43;;;;;;;;;;;23.60;47.30;;;;;;1565091;74;722;-63
2021/08/21 06:07:45;;;;;;;;;;;23.60;47.30;;;;;;1563699;74;1918;-63
2021/08/21 06:09:47;;;;;;;;;;;23.70;47.40;;;;;;1561197;75;1132;-63
2021/08/21 06:11:49;;;;;;;;;;;23.60;47.30;;;;;;1562142;74;837;-63
2021/08/21 06:13:51;;;;;;;;;;;23.70;47.30;;;;;;1562403;75;808;-62
2021/08/21 06:15:53;;;;;;;;;;;23.70;47.30;;;;;;1565096;75;722;-63
2021/08/21 06:17:54;;;;;;;;;;;23.70;47.30;;;;;;1568939;74;748;-63
2021/08/21 06:19:56;;;;;;;;;;;23.70;47.40;;;;;;1568027;75;1119;-63
2021/08/21 06:21:58;;;;;;;;;;;23.70;47.30;;;;;;1562340;74;760;-63
2021/08/21 06:24:00;;;;;;;;;;;23.70;47.30;;;;;;1562463;75;683;-60
2021/08/21 06:26:02;;;;;;;;;;;23.80;47.30;;;;;;1564650;75;722;-61
2021/08/21 06:28:04;;;;;;;;;;;23.80;47.30;;;;;;1561364;74;1946;-62
2021/08/21 06:30:06;;;;;;;;;;;23.80;47.40;;;;;;1565788;74;654;-63
2021/08/21 06:32:09;;;;;;;;;;;23.70;47.30;;;;;;1565683;75;791;-63
2021/08/21 06:34:11;;;;;;;;;;;23.80;47.30;;;;;;1553830;76;750;-63
2021/08/21 06:36:12;;;;;;;;;;;23.80;47.30;;;;;;1568900;74;754;-63
2021/08/21 06:38:14;;;;;;;;;;;23.70;47.30;;;;;;1570322;74;1122;-62
2021/08/21 06:40:16;;;;;;;;;;;23.80;47.30;;;;;;1554565;76;715;-62
2021/08/21 06:42:18;;;;;;;;;;;23.70;47.30;;;;;;1566811;74;722;-62
2021/08/21 06:44:20;;;;;;;;;;;23.80;47.30;;;;;;1566678;76;779;-63
2021/08/21 06:46:22;;;;;;;;;;;23.70;47.30;;;;;;1567717;74;798;-63
2021/08/21 06:48:24;;;;;;;;;;;23.80;47.30;;;;;;1559832;74;1950;-63
2021/08/21 06:50:25;;;;;;;;;;;23.80;47.30;;;;;;1558076;75;727;-62
2021/08/21 06:52:27;;;;;;;;;;;23.80;47.30;;;;;;1569758;74;793;-63
2021/08/21 06:54:29;;;;;;;;;;;23.80;47.30;;;;;;1568799;74;770;-62
2021/08/21 06:56:31;;;;;;;;;;;23.90;47.40;;;;;;1564918;74;746;-62
2021/08/21 06:58:33;;;;;;;;;;;23.90;47.40;;;;;;1561266;74;1147;-63
2021/08/21 07:00:35;;;;;;;;;;;23.80;47.30;;;;;;1555741;74;745;-63
2021/08/21 07:02:37;;;;;;;;;;;23.90;47.40;;;;;;1555859;75;802;-63
2021/08/21 07:04:40;;;;;;;;;;;23.90;47.40;;;;;;1564929;74;769;-63
2021/08/21 07:06:42;;;;;;;;;;;23.90;47.40;;;;;;1565638;74;761;-63
2021/08/21 07:08:44;;;;;;;;;;;23.90;47.50;;;;;;1564364;74;1950;-62
2021/08/21 07:10:46;;;;;;;;;;;23.90;47.50;;;;;;1568697;74;797;-63
2021/08/21 07:12:48;;;;;;;;;;;23.90;47.50;;;;;;1558924;74;770;-63
2021/08/21 07:14:50;;;;;;;;;;;23.90;47.50;;;;;;1555982;76;728;-62
2021/08/21 07:16:51;;;;;;;;;;;23.90;47.50;;;;;;1561776;74;814;-63
2021/08/21 07:18:53;;;;;;;;;;;23.90;47.60;;;;;;1560576;76;1120;-63
2021/08/21 07:20:55;;;;;;;;;;;23.90;47.60;;;;;;1558870;74;782;-63
2021/08/21 07:22:57;;;;;;;;;;;23.90;47.60;;;;;;1557926;76;856;-63
2021/08/21 07:24:59;;;;;;;;;;;23.90;47.70;;;;;;1556717;74;785;-63
2021/08/21 07:27:01;;;;;;;;;;;23.90;47.70;;;;;;1562936;74;817;-63
2021/08/21 07:29:03;;;;;;;;;;;24.00;47.80;;;;;;1558303;74;1920;-61
2021/08/21 07:31:05;;;;;;;;;;;23.90;47.70;;;;;;1565023;74;816;-63
2021/08/21 07:33:07;;;;;;;;;;;24.00;47.80;;;;;;1561854;74;850;-63
2021/08/21 07:35:09;;;;;;;;;;;24.00;47.80;;;;;;1570654;74;719;-63
2021/08/21 07:37:11;;;;;;;;;;;24.00;47.90;;;;;;1552595;76;735;-63
2021/08/21 07:39:13;;;;;;;;;;;24.00;47.80;;;;;;1554623;76;1135;-63
2021/08/21 07:41:14;;;;;;;;;;;24.10;48.10;;;;;;1569189;74;747;-63
2021/08/21 07:43:16;;;;;;;;;;;24.00;48.00;;;;;;1563032;74;786;-62
2021/08/21 07:45:18;;;;;;;;;;;24.10;48.10;;;;;;1550349;74;806;-62
2021/08/21 07:47:20;;;;;;;;;;;24.00;48.10;;;;;;1552322;75;778;-62
2021/08/21 07:49:22;;;;;;;;;;;24.10;48.30;;;;;;1549558;74;2107;-67
2021/08/21 07:51:24;;;;;;;;;;;24.10;48.40;;;;;;1538112;75;742;-67
2021/08/21 07:53:26;;;;;;;;;;;24.10;48.40;;;;;;1536411;76;717;-68
2021/08/21 07:55:28;;;;;;;;;;;24.10;48.40;;;;;;1531526;75;722;-68
2021/08/21 07:57:29;;;;;;;;;;;24.10;48.40;;;;;;1534068;75;780;-69
2021/08/21 07:59:31;;;;;;;;;;;24.10;48.50;;;;;;1534723;76;1202;-65
2021/08/21 08:01:33;;;;;;;;;;;24.10;48.50;;;;;;1533414;75;717;-67
2021/08/21 08:03:35;;;;;;;;;;;24.20;48.50;;;;;;1532857;77;721;-66
2021/08/21 08:05:37;;;;;;;;;;;24.20;48.60;;;;;;1537539;75;794;-67
2021/08/21 08:07:39;;;;;;;;;;;24.20;48.60;;;;;;1542259;75;745;-68
2021/08/21 08:09:41;;;;;;;;;;;24.20;48.70;;;;;;1527191;76;1941;-67
2021/08/21 08:11:43;;;;;;;;;;;24.20;48.80;;;;;;1536629;75;713;-68
2021/08/21 08:13:44;;;;;;;;;;;24.20;48.80;;;;;;1530919;75;757;-69
2021/08/21 08:15:46;;;;;;;;;;;24.20;48.90;;;;;;1531698;76;756;-66
2021/08/21 08:17:48;;;;;;;;;;;24.20;48.90;;;;;;1539724;76;717;-68
2021/08/21 08:19:50;;;;;;;;;;;24.20;48.90;;;;;;1535199;75;1166;-68
2021/08/21 08:21:52;;;;;;;;;;;24.30;49.10;;;;;;1528133;75;706;-66
2021/08/21 08:23:55;;;;;;;;;;;24.20;49.00;;;;;;1532633;75;742;-68
2021/08/21 08:25:57;;;;;;;;;;;24.30;49.10;;;;;;1530183;75;734;-69
2021/08/21 08:27:59;;;;;;;;;;;24.30;49.10;;;;;;1525516;75;1935;-68
2021/08/21 08:30:01;;;;;;;;;;;24.30;49.10;;;;;;1539931;75;1140;-68
2021/08/21 08:32:03;;;;;;;;;;;24.30;49.10;;;;;;1539794;75;699;-67
2021/08/21 08:34:05;;;;;;;;;;;24.30;49.10;;;;;;1536727;75;741;-68
2021/08/21 08:36:07;;;;;;;;;;;24.40;49.10;;;;;;1542632;76;679;-68
2021/08/21 08:38:09;;;;;;;;;;;24.30;49.10;;;;;;1529347;75;765;-67
2021/08/21 08:40:11;;;;;;;;;;;24.30;49.10;;;;;;1539999;76;1135;-68
2021/08/21 08:42:14;;;;;;;;;;;24.30;49.20;;;;;;1531399;75;792;-68
2021/08/21 08:44:16;;;;;;;;;;;24.30;49.20;;;;;;1525852;75;707;-68
2021/08/21 08:46:19;;;;;;;;;;;24.30;49.20;;;;;;1530849;75;660;-68
2021/08/21 08:48:21;;;;;;;;;;;24.30;49.20;;;;;;1535361;75;1944;-69
2021/08/21 08:50:23;;;;;;;;;;;24.30;49.20;;;;;;1535951;75;1108;-69
2021/08/21 08:52:25;;;;;;;;;;;24.40;49.20;;;;;;1538847;75;761;-68
2021/08/21 08:54:27;;;;;;;;;;;24.40;49.20;;;;;;1543468;75;706;-68
2021/08/21 08:56:28;;;;;;;;;;;24.30;49.20;;;;;;1536600;75;661;-68
2021/08/21 08:58:30;;;;;;;;;;;24.30;49.20;;;;;;1539700;75;1141;-68
2021/08/21 09:00:32;;;;;;;;;;;24.40;49.10;;;;;;1539425;77;750;-70
2021/08/21 09:02:35;;;;;;;;;;;24.40;49.20;;;;;;1538409;75;793;-68
2021/08/21 09:04:37;;;;;;;;;;;24.40;49.10;;;;;;1536538;75;706;-66
2021/08/21 09:06:39;;;;;;;;;;;24.40;49.10;;;;;;1532592;75;685;-68
2021/08/21 09:08:41;;;;;;;;;;;24.30;49.20;;;;;;1541770;75;1916;-68
2021/08/21 09:10:44;;;;;;;;;;;24.40;49.10;;;;;;1537443;75;824;-69
2021/08/21 09:12:47;;;;;;;;;;;24.40;49.10;;;;;;1536961;75;845;-68
2021/08/21 09:14:48;;;;;;;;;;;24.30;49.10;;;;;;1540180;75;703;-68
2021/08/21 09:16:50;;;;;;;;;;;24.40;49.10;;;;;;1538031;75;715;-68
2021/08/21 09:18:57;;;;;;;;;;;24.40;49.10;;;;;;1539919;75;1179;-67
2021/08/21 09:21:00;;;;;;;;;;;24.40;49.00;;;;;;1530024;75;951;-68
2021/08/21 09:23:18;;;;;;;;;;;24.40;49.10;;;;;;1538290;75;799;-68
2021/08/21 09:25:29;;;;;;;;;;;24.40;49.10;;;;;;1533220;75;711;-67
2021/08/21 09:27:31;;;;;;;;;;;24.40;49.10;;;;;;1535486;75;720;-68
2021/08/21 09:29:34;;;;;;;;;;;24.40;49.20;;;;;;1534573;75;1940;-68
2021/08/21 09:31:38;;;;;;;;;;;24.40;49.20;;;;;;1540043;75;638;-65
2021/08/21 09:33:40;;;;;;;;;;;24.30;49.20;;;;;;1541150;75;647;-68
2021/08/21 09:35:42;;;;;;;;;;;24.50;49.30;;;;;;1545751;75;688;-68
2021/08/21 09:37:48;;;;;;;;;;;24.40;49.30;;;;;;1523488;75;736;-69
2021/08/21 09:39:50;;;;;;;;;;;24.40;49.30;;;;;;1534675;75;1110;-65
2021/08/21 09:41:55;;;;;;;;;;;24.50;49.40;;;;;;1541591;75;760;-67
2021/08/21 09:44:07;;;;;;;;;;;24.50;49.40;;;;;;1539247;75;774;-68
2021/08/21 09:46:13;;;;;;;;;;;24.40;49.30;;;;;;1530923;75;806;-68
2021/08/21 09:48:15;;;;;;;;;;;24.50;49.50;;;;;;1536717;75;638;-70
2021/08/21 09:50:17;;;;;;;;;;;24.40;49.40;;;;;;1535197;75;1949;-68
2021/08/21 09:52:19;;;;;;;;;;;24.50;49.40;;;;;;1538031;75;676;-69
2021/08/21 09:54:21;;;;;;;;;;;24.50;49.30;;;;;;1535064;75;744;-68
2021/08/21 09:56:25;;;;;;;;;;;24.50;49.40;;;;;;1548465;75;761;-67
2021/08/21 09:58:27;;;;;;;;;;;24.60;49.40;;;;;;1527917;76;1163;-68
2021/08/21 10:00:29;;;;;;;;;;;24.50;49.40;;;;;;1537876;75;757;-68
2021/08/21 10:02:31;;;;;;;;;;;24.50;49.40;;;;;;1528530;75;759;-67
2021/08/21 10:04:34;;;;;;;;;;;24.50;49.40;;;;;;1539774;75;722;-68
2021/08/21 10:06:35;;;;;;;;;;;24.50;49.50;;;;;;1532194;75;783;-64
2021/08/21 10:08:38;;;;;;;;;;;24.50;49.40;;;;;;1536315;76;1959;-68
2021/08/21 10:10:49;;;;;;;;;;;24.50;49.40;;;;;;1541693;75;733;-68
2021/08/21 10:12:47;;;;;;;;;;;24.50;49.30;;;;;;1497353;77;1423;-67
2021/08/21 10:14:50;;;;;;;;;;;24.60;49.20;;;;;;1502499;77;768;-68
2021/08/21 10:16:52;;;;;;;;;;;24.60;49.20;;;;;;1535377;75;720;-67
2021/08/21 10:18:54;;;;;;;;;;;24.50;49.20;;;;;;1529808;75;1163;-67
2021/08/21 10:20:56;;;;;;;;;;;24.50;49.10;;;;;;1536916;75;703;-66
2021/08/21 10:22:58;;;;;;;;;;;24.60;49.00;;;;;;1534660;75;702;-67
2021/08/21 10:25:03;;;;;;;;;;;24.50;49.00;;;;;;1536641;75;685;-68
2021/08/21 10:27:09;;;;;;;;;;;24.60;48.90;;;;;;1537107;75;753;-68
2021/08/21 10:29:11;;;;;;;;;;;24.50;48.90;;;;;;1539499;75;1948;-68
2021/08/21 10:31:31;;;;;;;;;;;24.40;48.80;;;;;;1539941;75;787;-67
2021/08/21 10:33:51;;;;;;;;;;;24.50;48.90;;;;;;1531756;76;702;-64
2021/08/21 10:35:54;;;;;;;;;;;24.50;49.00;;;;;;1532937;75;710;-67
2021/08/21 10:37:56;;;;;;;;;;;24.40;48.90;;;;;;1537718;75;692;-68
2021/08/21 10:39:58;;;;;;;;;;;24.60;49.00;;;;;;1540865;75;1147;-69
2021/08/21 10:42:01;;;;;;;;;;;24.40;48.90;;;;;;1537135;75;724;-66
2021/08/21 10:44:03;;;;;;;;;;;24.50;49.00;;;;;;1533276;75;1166;-68
2021/08/21 10:46:05;;;;;;;;;;;24.50;48.90;;;;;;1543336;75;772;-66
2021/08/21 10:48:07;;;;;;;;;;;24.60;48.90;;;;;;1534865;75;693;-67
2021/08/21 10:50:14;;;;;;;;;;;24.50;48.90;;;;;;1551892;75;1945;-68
2021/08/21 10:52:34;;;;;;;;;;;24.50;48.90;;;;;;1534836;75;661;-66
2021/08/21 10:54:45;;;;;;;;;;;24.50;48.90;;;;;;1536424;75;765;-67
2021/08/21 10:56:47;;;;;;;;;;;24.50;49.00;;;;;;1540975;75;706;-68
2021/08/21 10:58:55;;;;;;;;;;;24.50;49.00;;;;;;1538873;75;1181;-69
2021/08/21 11:01:06;;;;;;;;;;;24.50;49.00;;;;;;1538823;75;694;-69
2021/08/21 11:03:08;;;;;;;;;;;24.60;49.10;;;;;;1531645;75;779;-67
2021/08/21 11:05:12;;;;;;;;;;;24.50;49.10;;;;;;1535103;75;718;-67
2021/08/21 11:07:32;;;;;;;;;;;24.50;49.10;;;;;;1531988;75;2015;-67
2021/08/21 11:09:34;;;;;;;;;;;24.50;49.10;;;;;;1537247;75;1933;-69
2021/08/21 11:11:41;;;;;;;;;;;24.60;49.10;;;;;;1536976;76;719;-67
2021/08/21 11:14:01;;;;;;;;;;;24.50;49.10;;;;;;1540565;75;1625;-68
2021/08/21 11:16:09;;;;;;;;;;;24.50;49.00;;;;;;1536678;76;663;-66
2021/08/21 11:18:14;;;;;;;;;;;24.40;48.90;;;;;;1541108;75;1076;-67
2021/08/21 11:20:26;;;;;;;;;;;24.50;49.10;;;;;;1517675;76;1163;-67
2021/08/21 11:22:30;;;;;;;;;;;24.40;49.00;;;;;;1532172;75;681;-67
2021/08/21 11:24:32;;;;;;;;;;;24.40;48.90;;;;;;1536032;75;1281;-67
2021/08/21 11:26:34;;;;;;;;;;;24.50;49.00;;;;;;1539012;75;681;-67
2021/08/21 11:28:37;;;;;;;;;;;24.40;49.00;;;;;;1534447;75;1155;-66
2021/08/21 11:30:38;;;;;;;;;;;24.50;49.10;;;;;;1540406;76;1894;-65
2021/08/21 11:32:40;;;;;;;;;;;24.40;49.00;;;;;;1536753;75;700;-68
2021/08/21 11:34:42;;;;;;;;;;;24.50;49.10;;;;;;1540993;75;692;-68
2021/08/21 11:36:45;;;;;;;;;;;24.40;48.90;;;;;;1538997;75;778;-67
2021/08/21 11:38:47;;;;;;;;;;;24.50;49.10;;;;;;1533518;75;1104;-68
2021/08/21 11:40:49;;;;;;;;;;;24.40;49.10;;;;;;1537728;75;765;-67
2021/08/21 11:42:52;;;;;;;;;;;24.50;49.10;;;;;;1525318;77;765;-67
2021/08/21 11:44:54;;;;;;;;;;;24.40;49.10;;;;;;1532794;76;696;-69
2021/08/21 11:47:08;;;;;;;;;;;24.50;49.20;;;;;;1543009;75;731;-68
2021/08/21 11:49:10;;;;;;;;;;;24.40;49.10;;;;;;1528312;75;1940;-68
2021/08/21 11:51:12;;;;;;;;;;;24.40;49.10;;;;;;1539648;75;789;-65
2021/08/21 11:53:23;;;;;;;;;;;24.40;49.10;;;;;;1533887;75;693;-68
2021/08/21 11:55:25;;;;;;;;;;;24.50;49.30;;;;;;1529081;75;847;-68
2021/08/21 11:57:27;;;;;;;;;;;24.50;49.20;;;;;;1536566;75;724;-68
2021/08/21 11:59:29;;;;;;;;;;;24.50;49.30;;;;;;1506369;77;1285;-68
2021/08/21 12:01:34;;;;;;;;;;;24.50;49.30;;;;;;1472333;79;800;-68
2021/08/21 12:04:22;;;;;;;;;;;24.50;49.30;;;;;;1490360;78;1089;-68
2021/08/21 12:05:45;;;;;;;;;;;24.40;49.20;;;;;;1457588;78;1368;-68
2021/08/21 12:07:47;;;;;;;;;;;24.50;49.30;;;;;;1480707;78;633;-67
2021/08/21 12:09:58;;;;;;;;;;;24.50;49.30;;;;;;1505992;77;1941;-67
2021/08/21 12:12:02;;;;;;;;;;;24.50;49.40;;;;;;1478179;78;735;-68